MVY weather

Martha's Vineyard Airport
Martha's Vineyard, Massachusetts, United States

Public forecast

Using degrees Fahrenheit for public forecast. Weather courtesy of forecast.io.

METAR (pilot weather report)

Retrieved 2019/07/19 07:23 UTC (0 seconds ago):

KMVY 190723Z AUTO 04005KT 1 3/4SM BR OVC002 21/20 A2986 RMK AO2 T02060200

TAF (pilot weather forecast)

Forecast is more than 12 hours old.

Closest forecast is Cape Cod Coast Guard Air Station, 16.5 nm (30.5 km) NNE. Retrieved 2019/07/18 00:36 UTC (1 day ago):

TAF KFMH 182333Z 1900/1924 05005KT 1 1/2SM -SHRA BR OVC003 FM190600 01003KT 2SM BR OVC003 FM191100 36004KT 2SM BR OVC003 FM191400 01004KT P6SM BKN008 FM191600 29004KT P6SM BKN035 FM192100 22011G19KT P6SM FEW060